Time;durP1;ratioP1;P1;durP2;ratioP2;P2;SDS_P1;SDS_P2;PMS_P1;PMS_P2;Temp;Humidity;BMP_temperature;BMP_pressure;BME280_temperature;BME280_humidity;BME280_pressure;Samples;Min_cycle;Max_cycle;Signal;HPM_P1;HPM_P2
2022/07/22 00:00:55;;;;;;;20.80;6.35;;;;;;;17.34;71.04;99137.84;4967248;28;20049;-91
2022/07/22 00:03:25;;;;;;;13.77;6.30;;;;;;;17.14;71.00;99106.63;4959222;29;20051;-94
2022/07/22 00:05:51;;;;;;;13.73;6.27;;;;;;;17.19;71.06;99091.75;4942256;29;20207;-91
2022/07/22 00:08:17;;;;;;;11.30;5.77;;;;;;;17.32;70.78;99124.38;4965312;28;20395;-90
2022/07/22 00:10:44;;;;;;;12.63;6.00;;;;;;;17.11;71.12;99101.81;4932656;29;20044;-91
2022/07/22 00:13:23;;;;;;;10.23;6.18;;;;;;;17.59;71.06;99166.00;4954697;29;20126;-95
2022/07/22 00:15:50;;;;;;;11.10;5.80;;;;;;;17.14;71.07;99087.28;4933594;29;20055;-91
2022/07/22 00:18:16;;;;;;;13.80;6.68;;;;;;;17.38;70.88;99128.47;4963874;29;20043;-91
2022/07/22 00:20:43;;;;;;;15.93;6.35;;;;;;;17.51;70.91;99165.03;4962245;29;20043;-93
2022/07/22 00:23:09;;;;;;;26.77;6.77;;;;;;;17.34;71.05;99130.34;4949283;29;20420;-93
2022/07/22 00:25:35;;;;;;;18.63;6.22;;;;;;;17.42;70.75;99141.53;4959294;29;20043;-96
2022/07/22 00:28:02;;;;;;;16.20;6.95;;;;;;;17.35;71.30;99129.19;4947912;29;20058;-91
2022/07/22 00:30:38;;;;;;;10.52;6.28;;;;;;;17.33;70.69;99111.38;4941741;29;20050;-93
2022/07/22 00:33:04;;;;;;;14.82;5.95;;;;;;;17.58;71.09;99159.69;4948243;29;20043;-92
2022/07/22 00:35:31;;;;;;;12.82;6.13;;;;;;;17.58;70.83;99150.56;4950077;29;20054;-91
2022/07/22 00:38:00;;;;;;;9.77;5.55;;;;;;;17.36;70.71;99111.44;4964622;29;20051;-92
2022/07/22 00:40:29;;;;;;;16.15;6.55;;;;;;;17.55;70.71;99145.78;4973498;28;20057;-93
2022/07/22 00:42:55;;;;;;;23.67;6.32;;;;;;;17.54;70.86;99152.44;4981854;28;20038;-91
2022/07/22 00:45:27;;;;;;;12.37;6.30;;;;;;;17.75;70.71;99182.53;4982548;28;20070;-96
2022/07/22 00:47:54;;;;;;;14.90;6.45;;;;;;;17.64;70.58;99162.13;4967200;28;20290;-92
2022/07/22 00:50:24;;;;;;;13.07;6.63;;;;;;;17.35;70.78;99114.56;4982724;28;20047;-92
2022/07/22 00:52:52;;;;;;;11.52;6.38;;;;;;;17.51;70.73;99142.91;4982721;28;20500;-91
2022/07/22 00:55:18;;;;;;;9.00;5.85;;;;;;;17.72;71.00;99181.28;4969365;28;20297;-96
2022/07/22 00:58:04;;;;;;;13.70;5.70;;;;;;;17.33;70.87;99114.13;4968527;28;20047;-93
2022/07/22 01:00:31;;;;;;;13.00;6.43;;;;;;;17.34;71.00;99112.97;4950433;28;20588;-90
2022/07/22 01:02:58;;;;;;;14.32;6.85;;;;;;;17.72;71.06;99161.13;4964973;28;20137;-91
2022/07/22 01:05:24;;;;;;;13.93;5.40;;;;;;;17.35;71.05;99139.41;4952239;28;20059;-95
2022/07/22 01:07:50;;;;;;;10.25;5.57;;;;;;;17.45;71.13;99138.88;4963581;28;20042;-91
2022/07/22 01:10:16;;;;;;;12.43;6.03;;;;;;;17.38;71.22;99135.94;4981450;28;20070;-90
2022/07/22 01:12:42;;;;;;;19.03;6.53;;;;;;;17.51;70.98;99150.41;4961257;28;20317;-90
2022/07/22 01:15:12;;;;;;;14.10;5.73;;;;;;;17.47;70.82;99153.09;4963628;28;20137;-94
2022/07/22 01:17:40;;;;;;;19.25;6.00;;;;;;;17.75;70.96;99190.81;4967347;28;20139;-93
2022/07/22 01:20:08;;;;;;;15.60;6.50;;;;;;;17.43;71.06;99145.91;4960503;28;20043;-96
2022/07/22 01:22:35;;;;;;;9.77;5.75;;;;;;;17.35;71.08;99134.72;4968925;28;20042;-96
2022/07/22 01:25:01;;;;;;;13.95;6.15;;;;;;;17.52;71.00;99157.56;4986377;28;20394;-96
2022/07/22 01:27:29;;;;;;;19.33;5.63;;;;;;;17.40;71.17;99141.13;4967938;28;20134;-93
2022/07/22 01:29:55;;;;;;;16.35;6.18;;;;;;;17.62;70.94;99176.34;4964598;28;20039;-94
2022/07/22 01:32:21;;;;;;;14.63;6.30;;;;;;;17.47;71.30;99146.78;4962984;28;20039;-91
2022/07/22 01:34:48;;;;;;;10.82;5.40;;;;;;;17.65;71.12;99185.84;4962773;29;20082;-94
2022/07/22 01:37:16;;;;;;;12.23;5.93;;;;;;;17.50;71.33;99166.19;4948569;28;20105;-95
2022/07/22 01:39:43;;;;;;;12.43;6.20;;;;;;;17.32;71.35;99146.50;4964877;28;20046;-91
2022/07/22 01:42:10;;;;;;;11.60;6.07;;;;;;;17.54;71.17;99185.63;4978949;28;20031;-92
2022/07/22 01:44:37;;;;;;;11.82;5.88;;;;;;;17.18;71.44;99126.81;4987142;28;20051;-95
2022/07/22 01:47:04;;;;;;;13.20;6.30;;;;;;;17.31;71.64;99155.94;4968370;28;20042;-92
2022/07/22 01:49:31;;;;;;;13.70;6.50;;;;;;;17.57;71.76;99194.00;4983115;28;20098;-92
2022/07/22 01:52:00;;;;;;;13.00;5.78;;;;;;;17.48;71.72;99174.06;4986169;28;20029;-91
2022/07/22 01:54:27;;;;;;;16.10;5.68;;;;;;;17.61;71.70;99196.81;4969856;28;20050;-96
2022/07/22 01:56:53;;;;;;;12.10;5.97;;;;;;;17.37;71.77;99156.44;4966686;28;20047;-96
2022/07/22 01:59:19;;;;;;;13.82;5.78;;;;;;;17.60;72.10;99181.41;4969081;28;20512;-91
2022/07/22 02:01:47;;;;;;;11.00;5.53;;;;;;;17.57;71.48;99173.84;4965238;28;20039;-91
2022/07/22 02:04:13;;;;;;;13.07;5.82;;;;;;;17.63;71.49;99169.63;4983633;28;20053;-92
2022/07/22 02:06:40;;;;;;;18.30;5.72;;;;;;;17.52;71.15;99150.06;4979621;28;20106;-91
2022/07/22 02:09:14;;;;;;;16.92;5.75;;;;;;;17.59;70.75;99155.75;4982895;28;20107;-90
2022/07/22 02:11:43;;;;;;;20.98;5.85;;;;;;;17.60;70.38;99160.09;4980451;28;20039;-92
2022/07/22 02:14:11;;;;;;;16.67;5.43;;;;;;;17.79;70.35;99183.41;4981500;28;20050;-93
2022/07/22 02:16:38;;;;;;;9.70;5.78;;;;;;;17.92;70.33;99190.41;4962542;28;20054;-92
2022/07/22 02:19:05;;;;;;;18.30;6.30;;;;;;;17.66;70.34;99152.31;4977222;28;20050;-96
2022/07/22 02:21:31;;;;;;;12.77;6.10;;;;;;;17.77;70.39;99172.69;4963314;28;20033;-96
2022/07/22 02:23:59;;;;;;;16.48;5.38;;;;;;;17.78;70.39;99181.78;4964831;28;20524;-90
2022/07/22 02:26:25;;;;;;;15.05;5.95;;;;;;;17.73;70.13;99177.34;4964690;28;20134;-96
2022/07/22 02:28:52;;;;;;;20.70;7.03;;;;;;;18.03;69.83;99207.19;4980600;28;20042;-95
2022/07/22 02:31:20;;;;;;;18.38;5.45;;;;;;;18.10;69.83;99214.81;4982279;28;20489;-95
2022/07/22 02:33:47;;;;;;;14.25;6.40;;;;;;;18.12;69.42;99209.75;4932453;28;20049;-96
2022/07/22 02:36:14;;;;;;;14.13;5.60;;;;;;;18.30;69.28;99238.53;4962699;28;20038;-91
2022/07/22 02:38:43;;;;;;;15.57;5.72;;;;;;;18.26;68.69;99219.09;4963386;28;20418;-95
2022/07/22 02:41:10;;;;;;;11.70;5.32;;;;;;;18.06;68.35;99184.34;4962907;28;20047;-91
2022/07/22 02:43:41;;;;;;;14.32;6.07;;;;;;;18.24;68.36;99213.13;4963044;28;20117;-90
2022/07/22 02:46:08;;;;;;;21.48;6.25;;;;;;;18.37;68.32;99235.88;4963971;28;20113;-95
2022/07/22 02:48:34;;;;;;;13.18;5.90;;;;;;;17.96;68.98;99185.72;4964991;28;20057;-90
2022/07/22 02:51:03;;;;;;;12.13;5.72;;;;;;;18.05;68.43;99208.44;4962597;28;20088;-90
2022/07/22 02:53:30;;;;;;;14.50;5.50;;;;;;;18.28;68.48;99232.56;4966548;28;20627;-92
2022/07/22 02:55:59;;;;;;;11.48;5.35;;;;;;;18.07;68.54;99200.56;4950904;28;20081;-90
2022/07/22 02:58:25;;;;;;;21.38;6.13;;;;;;;18.31;68.54;99237.38;4979038;28;20046;-90
2022/07/22 03:00:51;;;;;;;18.70;6.07;;;;;;;18.07;68.80;99208.84;4966054;28;20043;-91
2022/07/22 03:03:20;;;;;;;10.20;5.18;;;;;;;18.27;69.23;99245.59;4967157;28;20333;-94
2022/07/22 03:05:48;;;;;;;13.57;6.10;;;;;;;18.18;69.37;99222.91;4964648;28;20078;-91
2022/07/22 03:08:34;;;;;;;15.48;6.25;;;;;;;18.19;68.70;99230.03;4984340;28;20492;-91
2022/07/22 03:11:01;;;;;;;18.23;6.57;;;;;;;18.08;69.06;99220.75;4967169;28;20484;-91
2022/07/22 03:13:27;;;;;;;6.85;5.45;;;;;;;17.95;69.69;99214.56;4985541;28;20039;-92
2022/07/22 03:15:53;;;;;;;10.07;5.68;;;;;;;18.17;69.75;99254.50;4967527;28;20039;-94
2022/07/22 03:18:21;;;;;;;20.52;6.13;;;;;;;18.12;69.96;99240.16;4962981;28;20046;-89
2022/07/22 03:20:47;;;;;;;18.05;5.68;;;;;;;18.16;70.05;99232.72;4980864;28;20046;-96
2022/07/22 03:23:15;;;;;;;13.57;5.85;;;;;;;18.26;69.66;99244.00;4982205;28;20141;-92
2022/07/22 03:25:41;;;;;;;12.10;5.90;;;;;;;18.11;69.76;99217.22;4978010;28;20086;-91
2022/07/22 03:28:08;;;;;;;22.40;7.07;;;;;;;18.42;69.39;99254.97;4995987;28;20023;-90
2022/07/22 03:30:37;;;;;;;13.82;6.40;;;;;;;18.51;68.72;99280.47;4995563;28;20046;-91
2022/07/22 03:33:03;;;;;;;19.83;6.63;;;;;;;18.35;68.71;99249.31;4937224;28;20051;-90
2022/07/22 03:35:32;;;;;;;13.07;6.15;;;;;;;18.38;69.09;99250.56;4968716;28;20101;-90
2022/07/22 03:38:01;;;;;;;16.30;6.45;;;;;;;18.53;69.16;99263.47;4965076;28;20050;-90
2022/07/22 03:40:29;;;;;;;20.80;6.47;;;;;;;18.41;69.38;99252.56;4978637;28;20070;-90
2022/07/22 03:42:58;;;;;;;36.03;6.80;;;;;;;18.46;69.98;99269.69;4976085;28;20153;-96
2022/07/22 03:45:25;;;;;;;17.52;6.28;;;;;;;18.61;70.08;99287.38;4962775;28;20054;-96
2022/07/22 03:47:54;;;;;;;13.85;5.60;;;;;;;18.59;68.64;99283.34;4961710;28;20545;-92
2022/07/22 03:50:22;;;;;;;14.10;6.10;;;;;;;18.45;68.71;99248.72;4961905;28;20122;-89
2022/07/22 03:52:48;;;;;;;69.27;10.30;;;;;;;18.41;69.31;99242.31;4962737;28;20505;-92
2022/07/22 03:55:15;;;;;;;43.45;7.40;;;;;;;18.58;69.65;99270.69;4979386;28;20348;-90
2022/07/22 03:57:45;;;;;;;9.40;6.00;;;;;;;18.71;68.75;99272.91;4978407;28;20050;-90
2022/07/22 04:00:21;;;;;;;23.02;7.38;;;;;;;18.94;68.58;99299.81;4962670;28;20575;-92
2022/07/22 04:02:49;;;;;;;18.05;6.20;;;;;;;18.57;68.15;99247.72;4979246;28;20050;-90
2022/07/22 04:05:29;;;;;;;25.83;7.03;;;;;;;18.99;67.86;99305.06;4978188;28;20093;-91
2022/07/22 04:07:55;;;;;;;16.38;6.80;;;;;;;18.77;67.93;99267.88;4966782;28;20181;-96
2022/07/22 04:10:22;;;;;;;14.73;6.28;;;;;;;18.74;68.70;99252.81;4962653;28;20038;-90
2022/07/22 04:12:48;;;;;;;21.88;6.57;;;;;;;18.97;67.37;99293.53;4963058;28;20038;-93
2022/07/22 04:15:27;;;;;;;11.00;5.53;;;;;;;18.84;67.11;99278.28;4979597;28;20122;-91
2022/07/22 04:17:53;;;;;;;;;;;;;;;19.10;68.46;99313.56;4959355;28;20038;-93
2022/07/22 04:20:20;;;;;;;35.95;8.25;;;;;;;19.07;67.82;99304.00;4957900;28;19941;-90
2022/07/22 04:23:18;;;;;;;18.10;6.40;;;;;;;19.15;67.15;99299.41;4942085;28;20067;-93
2022/07/22 04:25:45;;;;;;;23.30;6.50;;;;;;;19.30;66.66;99320.63;4959771;28;20141;-89
2022/07/22 04:28:12;;;;;;;25.33;6.60;;;;;;;19.14;67.51;99270.06;4976357;28;20475;-90
2022/07/22 04:30:40;;;;;;;21.85;6.70;;;;;;;19.16;65.78;99259.44;4976305;28;20066;-89
2022/07/22 04:33:08;;;;;;;12.98;5.78;;;;;;;19.23;64.28;99262.31;4977269;28;20066;-96
2022/07/22 04:35:34;;;;;;;23.17;6.60;;;;;;;19.19;65.17;99270.56;4964026;28;20097;-95
2022/07/22 04:38:11;;;;;;;27.90;6.05;;;;;;;19.27;65.42;99274.28;4980996;28;20102;-91
2022/07/22 04:40:41;;;;;;;19.45;6.30;;;;;;;19.26;65.49;99261.56;4983418;28;20070;-95
2022/07/22 04:43:10;;;;;;;19.70;5.80;;;;;;;19.51;65.78;99289.66;4961215;28;20039;-92
2022/07/22 04:45:36;;;;;;;29.98;6.38;;;;;;;19.77;66.35;99313.84;4966575;28;20078;-91
2022/07/22 04:48:04;;;;;;;38.17;7.22;;;;;;;19.63;65.62;99291.41;4965835;28;20125;-91
2022/07/22 04:50:31;;;;;;;31.88;7.80;;;;;;;19.88;64.46;99320.34;4965431;28;20039;-90
2022/07/22 04:52:59;;;;;;;17.85;6.20;;;;;;;19.75;62.92;99299.53;4964128;28;20043;-95
2022/07/22 04:55:27;;;;;;;29.88;7.15;;;;;;;19.74;64.43;99289.63;4982040;28;20397;-89
2022/07/22 04:57:54;;;;;;;21.65;7.35;;;;;;;20.03;63.52;99320.53;4967036;28;20046;-95
2022/07/22 05:00:21;;;;;;;18.23;6.03;;;;;;;20.08;64.08;99336.84;4980924;28;20039;-92
2022/07/22 05:02:54;;;;;;;24.02;8.15;;;;;;;19.84;64.00;99288.19;4964068;29;20133;-92
2022/07/22 05:05:24;;;;;;;33.40;6.45;;;;;;;20.08;63.57;99321.00;4962930;28;20169;-95
2022/07/22 05:07:51;;;;;;;15.88;7.05;;;;;;;19.90;63.21;99279.16;4935557;28;20105;-90
2022/07/22 05:10:19;;;;;;;17.92;6.00;;;;;;;20.14;62.00;99307.59;4953023;28;20146;-90
2022/07/22 05:12:46;;;;;;;26.77;6.53;;;;;;;20.34;62.92;99330.44;4978105;28;20051;-91
2022/07/22 05:15:12;;;;;;;16.98;6.22;;;;;;;20.39;62.97;99339.22;4954399;28;20050;-94
2022/07/22 05:17:39;;;;;;;;;;;;;;;20.52;62.64;99341.78;4944785;29;20086;-91
2022/07/22 05:20:19;;;;;;;34.58;7.57;;;;;;;20.31;62.62;99301.47;4968360;28;19922;-95
2022/07/22 05:22:47;;;;;;;39.38;11.27;;;;;;;20.53;61.66;99329.47;4954416;28;20043;-91
2022/07/22 05:25:19;;;;;;;32.88;7.15;;;;;;;20.34;61.55;99281.28;4968280;28;20042;-90
2022/07/22 05:27:54;;;;;;;30.63;7.53;;;;;;;20.59;61.07;99325.19;4973191;28;20043;-89
2022/07/22 05:30:34;;;;;;;25.92;7.25;;;;;;;20.75;61.79;99344.41;4949487;28;20133;-89
2022/07/22 05:33:03;;;;;;;30.92;6.93;;;;;;;20.68;60.69;99334.03;4959273;28;20042;-90
2022/07/22 05:35:48;;;;;;;35.35;8.40;;;;;;;20.59;62.17;99303.78;4975510;28;20081;-94
2022/07/22 05:38:15;;;;;;;44.58;6.18;;;;;;;20.94;61.48;99354.53;4943776;28;20066;-93
2022/07/22 05:40:41;;;;;;;66.82;10.80;;;;;;;20.76;60.68;99307.13;4951531;28;20086;-90
2022/07/22 05:43:07;;;;;;;97.00;10.90;;;;;;;20.90;62.00;99339.81;4977275;28;20043;-90
2022/07/22 05:45:33;;;;;;;28.90;7.15;;;;;;;20.88;60.76;99304.84;4968378;28;20049;-90
2022/07/22 05:48:01;;;;;;;43.08;10.10;;;;;;;20.91;60.71;99341.41;4981596;28;20078;-93
2022/07/22 05:50:41;;;;;;;34.88;8.63;;;;;;;21.01;62.20;99330.38;4974077;28;20042;-96
2022/07/22 05:53:08;;;;;;;25.52;7.38;;;;;;;21.00;61.39;99325.22;4989087;28;20034;-92
2022/07/22 05:55:38;;;;;;;42.88;7.90;;;;;;;20.97;61.24;99310.13;4958710;28;20026;-89
2022/07/22 05:58:05;;;;;;;27.85;7.28;;;;;;;21.27;61.56;99343.34;4988681;28;20090;-89
2022/07/22 06:00:32;;;;;;;44.88;8.02;;;;;;;21.40;60.98;99346.66;4966293;28;20046;-93
2022/07/22 06:02:59;;;;;;;46.78;9.23;;;;;;;21.36;61.10;99340.28;4970757;28;20238;-94
2022/07/22 06:05:31;;;;;;;;;;;;;;;21.55;58.32;99359.47;4970180;28;20467;-90
2022/07/22 06:07:58;;;;;;;45.30;7.93;;;;;;;21.38;58.99;99337.09;4964704;28;19918;-91
2022/07/22 06:10:42;;;;;;;38.90;8.27;;;;;;;21.23;59.78;99297.25;5035758;22;20053;-96
2022/07/22 06:13:09;;;;;;;47.45;8.52;;;;;;;21.43;59.06;99342.31;5004120;28;20042;-95
2022/07/22 06:15:55;;;;;;;31.08;7.60;;;;;;;21.34;59.46;99312.00;4998459;28;20124;-88
2022/07/22 06:18:22;;;;;;;25.48;9.40;;;;;;;21.57;58.11;99334.84;4992388;28;20042;-90
2022/07/22 06:20:48;;;;;;;49.38;7.65;;;;;;;21.57;58.23;99334.84;4960266;28;20050;-95
2022/07/22 06:23:14;;;;;;;29.63;7.43;;;;;;;21.62;57.89;99311.44;4958815;28;20050;-94
2022/07/22 06:25:44;;;;;;;49.08;9.70;;;;;;;21.86;58.14;99335.06;4960826;28;20043;-96
2022/07/22 06:28:31;;;;;;;19.42;6.43;;;;;;;21.91;57.43;99339.44;4943953;29;20042;-88
2022/07/22 06:30:57;;;;;;;64.40;10.95;;;;;;;21.95;57.87;99327.16;4951887;28;20051;-91
2022/07/22 06:33:25;;;;;;;100.20;12.45;;;;;;;21.80;57.65;99304.00;4931511;28;20054;-94
2022/07/22 06:35:52;;;;;;;48.05;8.13;;;;;;;22.22;57.93;99357.56;4965027;28;20073;-95
2022/07/22 06:38:18;;;;;;;;;;;;;;;22.28;57.51;99361.53;4929234;28;20049;-87
2022/07/22 06:41:03;;;;;;;26.38;6.57;;;;;;;22.12;57.40;99319.25;4972064;28;19998;-96
2022/07/22 06:43:49;;;;;;;34.65;7.03;;;;;;;22.23;56.67;99326.50;4925108;28;20051;-91
2022/07/22 06:46:36;;;;;;;36.00;6.80;;;;;;;22.13;56.45;99291.03;4940384;28;20094;-95
2022/07/22 06:49:02;;;;;;;46.90;8.80;;;;;;;22.25;56.79;99313.00;4917244;28;20646;-95
2022/07/22 06:51:32;;;;;;;34.58;7.78;;;;;;;22.21;55.58;99287.13;4935214;29;20043;-90
2022/07/22 06:54:01;;;;;;;37.58;8.35;;;;;;;22.35;55.22;99285.56;4957740;28;20062;-91
2022/07/22 06:56:36;;;;;;;35.85;7.50;;;;;;;22.32;56.73;99280.78;4951468;28;20077;-92
2022/07/22 06:59:03;;;;;;;36.63;6.95;;;;;;;22.72;56.47;99335.44;4931011;28;20050;-96
2022/07/22 07:01:40;;;;;;;;;;;;;;;;;;;;;
2022/07/22 07:07:42;;;;;;;47.47;8.63;;;;;;;22.77;54.14;99339.81;5030893;28;20052;-93
2022/07/22 07:10:11;;;;;;;32.65;7.20;;;;;;;22.90;55.24;99341.03;5003323;28;20088;-93
2022/07/22 07:13:13;;;;;;;;;;;;;;;23.16;54.09;99376.97;5025757;28;20048;-89
2022/07/22 07:15:44;;;;;;;27.08;7.35;;;;;;;22.99;55.19;99355.44;5012252;28;19921;-89
2022/07/22 07:18:11;;;;;;;87.35;10.45;;;;;;;22.89;55.53;99336.66;5019365;28;20037;-86
2022/07/22 07:20:40;;;;;;;43.80;7.53;;;;;;;23.15;56.03;99339.13;5019104;28;20069;-92
2022/07/22 07:23:08;;;;;;;89.03;11.70;;;;;;;23.18;53.21;99323.59;5023757;28;20578;-90
2022/07/22 07:26:46;;;;;;;42.42;7.25;;;;;;;23.54;54.45;99382.97;5046413;22;20087;-94
2022/07/22 07:29:48;;;;;;;37.33;6.93;;;;;;;23.37;53.26;99347.47;5051077;28;20477;-92
2022/07/22 07:32:39;;;;;;;22.88;5.93;;;;;;;23.24;52.92;99383.34;5021415;28;20057;-89
2022/07/22 07:35:06;;;;;;;30.05;7.38;;;;;;;22.93;53.91;99360.59;5024524;28;20040;-90
2022/07/22 07:37:34;;;;;;;39.10;8.10;;;;;;;22.82;55.76;99362.53;5016137;28;20091;-89
2022/07/22 07:40:00;;;;;;;49.30;8.95;;;;;;;22.94;55.79;99378.91;4999677;28;20046;-92
2022/07/22 07:42:27;;;;;;;92.10;12.60;;;;;;;22.59;54.90;99318.28;5017548;28;20041;-90
2022/07/22 07:44:54;;;;;;;42.65;7.70;;;;;;;22.88;55.77;99363.75;5004117;28;20084;-90
2022/07/22 07:47:26;;;;;;;70.32;9.13;;;;;;;23.09;55.94;99378.94;5021295;28;20050;-90
2022/07/22 07:50:30;;;;;;;;;;;;;;;23.30;55.30;99386.53;5054749;28;20051;-89
2022/07/22 07:53:01;;;;;;;29.20;7.32;;;;;;;23.25;54.47;99345.91;5019861;28;20393;-92
2022/07/22 07:55:51;;;;;;;40.63;7.88;;;;;;;23.25;53.54;99331.97;5007153;28;20045;-90
2022/07/22 07:58:40;;;;;;;33.47;7.00;;;;;;;23.61;52.94;99369.03;5029809;28;20135;-92
2022/07/22 08:01:31;;;;;;;30.58;8.25;;;;;;;23.57;52.70;99390.53;5034580;28;20052;-93
2022/07/22 08:03:57;;;;;;;59.80;16.30;;;;;;;23.03;53.79;99319.19;5017332;28;22078;-90
2022/07/22 08:06:24;;;;;;;37.33;10.02;;;;;;;23.18;55.83;99368.22;5022165;28;20041;-89
2022/07/22 08:09:40;;;;;;;55.47;14.00;;;;;;;23.36;53.32;99388.53;5018233;28;20403;-88
2022/07/22 08:12:48;;;;;;;88.50;10.68;;;;;;;23.42;54.93;99395.31;5031997;28;20107;-89
2022/07/22 08:16:17;;;;;;;129.73;15.90;;;;;;;23.14;53.29;99328.34;5002184;23;20052;-91
2022/07/22 08:18:46;;;;;;;78.65;10.85;;;;;;;23.32;52.35;99345.09;5044310;28;20049;-92
2022/07/22 08:21:14;;;;;;;62.65;10.70;;;;;;;23.03;52.47;99313.63;5030813;28;20017;-91
2022/07/22 08:23:59;;;;;;;83.90;11.25;;;;;;;23.23;53.95;99341.91;5029806;28;20049;-91
2022/07/22 08:26:27;;;;;;;121.25;15.38;;;;;;;23.27;55.65;99349.06;5019213;28;20071;-90
2022/07/22 08:28:55;;;;;;;78.97;11.00;;;;;;;23.30;52.88;99353.88;4999628;28;20076;-89
2022/07/22 08:31:21;;;;;;;;;;;;;;;23.53;52.97;99389.72;5008779;28;20403;-92
2022/07/22 08:33:49;;;;;;;73.68;8.77;;;;;;;23.43;52.26;99368.22;5002910;28;20023;-90
2022/07/22 08:36:18;;;;;;;37.08;7.30;;;;;;;23.17;52.50;99342.28;5014745;28;20059;-90
2022/07/22 08:38:47;;;;;;;37.30;7.03;;;;;;;23.21;52.06;99348.69;5039337;22;20049;-90
2022/07/22 08:41:15;;;;;;;37.53;8.07;;;;;;;23.36;52.19;99373.78;5031453;28;20163;-90
2022/07/22 08:43:42;;;;;;;44.13;8.32;;;;;;;23.17;53.74;99345.09;5012419;28;20073;-91
2022/07/22 08:46:08;;;;;;;67.25;14.45;;;;;;;23.36;53.37;99368.22;5012064;28;20064;-89
2022/07/22 08:48:52;;;;;;;35.72;8.15;;;;;;;23.23;52.29;99342.72;5014912;28;20045;-90
2022/07/22 08:51:38;;;;;;;61.50;9.13;;;;;;;23.54;52.54;99371.00;5062811;28;20723;-91
2022/07/22 08:54:25;;;;;;;17.90;5.88;;;;;;;23.57;52.24;99370.19;5031548;28;20045;-90
2022/07/22 08:56:52;;;;;;;16.42;5.30;;;;;;;23.44;52.00;99369.81;5021657;28;20038;-91
2022/07/22 08:59:20;;;;;;;21.50;4.95;;;;;;;23.21;52.02;99340.31;5007302;28;20068;-89
2022/07/22 09:02:03;;;;;;;26.88;6.30;;;;;;;23.53;52.32;99416.84;5007842;28;20127;-92
2022/07/22 09:04:33;;;;;;;48.78;7.85;;;;;;;22.88;53.39;99343.41;5009765;28;20048;-91
2022/07/22 09:07:01;;;;;;;35.28;8.18;;;;;;;23.16;54.04;99395.69;5026238;28;20064;-93
2022/07/22 09:09:33;;;;;;;54.50;7.60;;;;;;;23.12;52.95;99395.69;5005076;28;20079;-90
2022/07/22 09:12:32;;;;;;;67.28;9.27;;;;;;;23.09;52.38;99379.75;5016716;28;20468;-86
2022/07/22 09:15:35;;;;;;;70.18;10.52;;;;;;;23.49;52.43;99422.44;5032812;28;20068;-87
2022/07/22 09:18:20;;;;;;;67.95;8.27;;;;;;;23.18;52.94;99360.66;5061092;28;20518;-92
2022/07/22 09:21:11;;;;;;;148.52;17.20;;;;;;;23.24;52.51;99365.81;5036879;28;20518;-89
2022/07/22 09:23:50;;;;;;;148.30;17.85;;;;;;;23.13;54.52;99380.53;5013646;28;20044;-91
2022/07/22 09:26:39;;;;;;;100.07;14.07;;;;;;;23.03;55.06;99377.75;5003073;28;20064;-91
2022/07/22 09:29:53;;;;;;;45.38;9.05;;;;;;;23.04;56.28;99401.63;4967328;28;20077;-91
2022/07/22 09:32:58;;;;;;;20.42;6.18;;;;;;;23.11;54.42;99432.31;4972559;28;20053;-89
2022/07/22 09:35:47;;;;;;;66.85;9.57;;;;;;;23.07;53.51;99446.25;4982457;28;20509;-93
2022/07/22 09:38:16;;;;;;;62.90;9.23;;;;;;;22.66;55.00;99364.88;4961427;28;20050;-92
2022/07/22 09:40:55;;;;;;;125.65;14.88;;;;;;;22.81;53.12;99376.84;4940679;29;20055;-93
2022/07/22 09:43:22;;;;;;;68.88;10.95;;;;;;;23.02;53.86;99374.16;4936204;29;20052;-88
2022/07/22 09:45:53;;;;;;;;;;;;;;;23.73;53.45;99426.44;4920618;29;20138;-90
2022/07/22 09:48:32;;;;;;;27.95;5.72;;;;;;;24.04;51.40;99402.50;4921245;29;20292;-87
2022/07/22 09:51:25;;;;;;;16.27;5.28;;;;;;;24.42;49.91;99413.19;4927860;29;20134;-90
2022/07/22 09:54:11;;;;;;;11.25;4.43;;;;;;;24.28;49.75;99384.06;4920088;29;20200;-91
2022/07/22 09:56:40;;;;;;;13.23;4.63;;;;;;;24.43;48.14;99418.38;4937388;28;20086;-90
2022/07/22 09:59:34;;;;;;;95.55;13.00;;;;;;;24.28;49.77;99416.81;4923288;29;20063;-93
2022/07/22 10:03:04;;;;;;;33.53;7.50;;;;;;;24.14;51.11;99426.03;5011534;28;20108;-91
2022/07/22 10:05:36;;;;;;;47.90;8.70;;;;;;;23.86;51.10;99407.28;4980747;28;20049;-89
2022/07/22 10:08:05;;;;;;;32.45;5.68;;;;;;;24.00;48.18;99386.94;4966285;28;20042;-89
2022/07/22 10:10:48;;;;;;;24.98;6.30;;;;;;;24.34;48.45;99392.84;4961422;28;20042;-90
2022/07/22 10:19:06;;;;;;;52.17;8.55;;;;;;;24.60;49.22;99437.09;4980192;28;20042;-93
2022/07/22 10:21:34;;;;;;;24.55;5.80;;;;;;;24.36;47.66;99435.91;4983593;28;20049;-91
2022/07/22 10:24:18;;;;;;;41.30;6.68;;;;;;;24.19;51.40;99419.22;5005239;28;20635;-90
2022/07/22 10:27:12;;;;;;;39.70;6.53;;;;;;;24.11;49.04;99404.47;4977379;28;20141;-91
2022/07/22 10:29:54;;;;;;;14.88;5.03;;;;;;;24.14;48.41;99410.06;4974872;28;20046;-90
2022/07/22 10:32:21;;;;;;;20.80;5.72;;;;;;;24.39;47.65;99439.91;4948271;28;20146;-88
2022/07/22 10:35:00;;;;;;;51.15;6.75;;;;;;;24.41;48.44;99429.16;4977917;28;20078;-93
2022/07/22 10:37:35;;;;;;;19.52;5.40;;;;;;;24.61;48.14;99430.28;4993348;28;20054;-88
2022/07/22 10:40:30;;;;;;;28.58;6.05;;;;;;;24.59;48.62;99426.31;4949962;28;20476;-89
2022/07/22 10:42:59;;;;;;;38.67;6.65;;;;;;;24.51;48.75;99427.53;4941766;28;20129;-94
2022/07/22 10:45:59;;;;;;;44.38;5.88;;;;;;;24.56;48.51;99438.28;4926243;28;20046;-89
2022/07/22 10:48:47;;;;;;;19.45;5.38;;;;;;;24.39;47.24;99440.69;4941046;28;20139;-88
2022/07/22 10:51:18;;;;;;;11.10;4.95;;;;;;;23.99;49.09;99402.09;4943595;28;20055;-89
2022/07/22 10:53:47;;;;;;;8.40;4.53;;;;;;;24.10;47.77;99442.75;4974034;28;20058;-89
2022/07/22 10:56:17;;;;;;;9.20;3.70;;;;;;;24.02;47.45;99441.19;4959217;28;20043;-91
2022/07/22 10:58:46;;;;;;;22.48;4.20;;;;;;;23.84;50.38;99429.22;4955653;28;20543;-95
2022/07/22 11:01:16;;;;;;;18.50;4.60;;;;;;;23.94;50.01;99448.00;4961294;28;20097;-90
2022/07/22 11:03:57;;;;;;;8.45;4.10;;;;;;;23.89;48.49;99445.59;4976225;28;20454;-90
2022/07/22 11:06:32;;;;;;;18.80;4.93;;;;;;;24.05;46.74;99437.59;5016520;28;20045;-91
2022/07/22 11:09:07;;;;;;;20.38;4.90;;;;;;;24.29;48.20;99447.13;5000488;28;20084;-89
2022/07/22 11:11:58;;;;;;;53.75;5.60;;;;;;;24.70;46.75;99443.03;5016337;28;20037;-89
2022/07/22 11:14:46;;;;;;;16.60;5.07;;;;;;;25.14;46.20;99438.88;4950055;28;20077;-90
2022/07/22 11:17:16;;;;;;;29.48;5.35;;;;;;;25.31;46.33;99412.75;4959593;28;20089;-89
2022/07/22 11:20:10;;;;;;;35.78;8.27;;;;;;;25.57;45.99;99428.16;4976076;28;20050;-88
2022/07/22 11:22:37;;;;;;;15.98;5.35;;;;;;;25.24;45.48;99405.22;4976066;28;20039;-90
2022/07/22 11:25:09;;;;;;;25.58;4.45;;;;;;;25.26;46.72;99419.56;4961146;28;20169;-89
2022/07/22 11:27:37;;;;;;;28.48;5.78;;;;;;;25.18;44.10;99420.06;4981464;28;20064;-91
2022/07/22 11:30:06;;;;;;;;;;;;;;;25.14;45.85;99430.47;4999014;28;20054;-89
2022/07/22 11:32:32;;;;;;;17.10;5.28;;;;;;;25.03;45.92;99436.06;5007557;28;20362;-88
2022/07/22 11:35:01;;;;;;;16.73;4.40;;;;;;;24.90;45.61;99438.56;4992548;28;20133;-89
2022/07/22 11:37:35;;;;;;;33.45;5.97;;;;;;;24.75;46.96;99425.84;4962056;28;20046;-90
2022/07/22 11:40:05;;;;;;;31.05;6.13;;;;;;;24.51;45.16;99413.56;4993012;28;20653;-89
2022/07/22 11:42:31;;;;;;;24.65;4.95;;;;;;;24.48;49.01;99423.56;4974142;28;20128;-90
2022/07/22 11:44:58;;;;;;;36.08;6.35;;;;;;;24.39;47.80;99414.75;4958563;28;20153;-91
2022/07/22 11:47:31;;;;;;;18.85;4.70;;;;;;;24.28;49.41;99412.00;4957123;28;20062;-91
2022/07/22 11:49:57;;;;;;;28.95;5.55;;;;;;;24.31;46.51;99408.41;4963303;28;20053;-90
2022/07/22 11:52:23;;;;;;;38.67;7.68;;;;;;;24.09;48.06;99376.94;5012386;28;20079;-91
2022/07/22 11:54:50;;;;;;;38.45;7.18;;;;;;;24.51;45.54;99389.22;4990292;28;20057;-93
2022/07/22 11:57:20;;;;;;;;;;;;;;;25.00;47.79;99434.91;4972334;28;20050;-92
2022/07/22 11:59:46;;;;;;;21.25;5.28;;;;;;;24.94;43.69;99405.78;4993118;28;20271;-92
2022/07/22 12:02:13;;;;;;;44.10;6.40;;;;;;;25.19;43.80;99427.22;4995271;28;20589;-90
2022/07/22 12:04:49;;;;;;;45.75;7.43;;;;;;;25.27;46.47;99403.59;4961906;28;20178;-90